createdAt,value
2022-11-17T00:03:59.817Z,4.67
2022-11-17T00:09:04.761Z,4.20
2022-11-17T00:14:27.427Z,5.07
2022-11-17T00:19:47.456Z,4.57
2022-11-17T00:24:52.792Z,4.53
2022-11-17T00:29:58.287Z,4.47
2022-11-17T00:35:06.613Z,4.83
2022-11-17T00:40:15.704Z,4.30
2022-11-17T00:45:21.036Z,4.27
2022-11-17T00:50:28.607Z,5.20
2022-11-17T00:55:34.948Z,4.03
2022-11-17T01:00:40.375Z,4.00
2022-11-17T01:05:47.949Z,3.30
2022-11-17T01:10:53.049Z,4.60
2022-11-17T01:15:57.975Z,4.53
2022-11-17T01:21:12.513Z,3.60
2022-11-17T01:26:18.726Z,3.27
2022-11-17T01:31:25.950Z,5.30
2022-11-17T01:36:58.568Z,3.40
2022-11-17T01:42:08.408Z,3.70
2022-11-17T01:47:19.498Z,3.67
2022-11-17T01:52:28.400Z,3.80
2022-11-17T01:57:40.490Z,3.90
2022-11-17T02:02:48.091Z,3.77
2022-11-17T02:07:57.573Z,4.10
2022-11-17T02:13:06.598Z,4.67
2022-11-17T02:18:11.968Z,3.60
2022-11-17T02:23:55.676Z,4.07
2022-11-17T02:29:09.122Z,4.67
2022-11-17T02:34:22.391Z,3.77
2022-11-17T02:39:32.386Z,4.00
2022-11-17T02:44:46.006Z,4.93
2022-11-17T02:49:56.049Z,5.30
2022-11-17T02:55:03.069Z,5.67
2022-11-17T03:00:14.151Z,4.70
2022-11-17T03:05:26.114Z,5.13
2022-11-17T03:10:39.261Z,5.77
2022-11-17T03:15:54.209Z,4.57
2022-11-17T03:21:08.663Z,4.90
2022-11-17T03:26:18.674Z,4.73
2022-11-17T03:31:29.471Z,5.07
2022-11-17T03:36:38.444Z,5.83
2022-11-17T03:41:47.449Z,5.03
2022-11-17T03:46:57.878Z,5.50
2022-11-17T03:52:04.124Z,5.10
2022-11-17T03:57:16.124Z,4.70
2022-11-17T04:02:25.416Z,4.73
2022-11-17T04:07:30.607Z,5.50
2022-11-17T04:12:48.015Z,5.37
2022-11-17T04:17:55.424Z,4.30
2022-11-17T04:23:11.913Z,4.63
2022-11-17T04:28:28.987Z,4.53
2022-11-17T04:33:42.552Z,4.17
2022-11-17T04:38:49.477Z,4.93
2022-11-17T04:43:57.951Z,6.40
2022-11-17T04:49:06.439Z,3.87
2022-11-17T04:54:13.764Z,3.93
2022-11-17T04:59:18.874Z,4.13
2022-11-17T05:04:38.897Z,4.17
2022-11-17T05:09:43.904Z,4.23
2022-11-17T05:14:50.597Z,4.50
2022-11-17T05:20:01.466Z,4.27
2022-11-17T05:25:07.272Z,4.30
2022-11-17T05:30:13.982Z,4.73
2022-11-17T05:35:21.471Z,4.73
2022-11-17T05:40:28.905Z,4.30
2022-11-17T05:45:33.870Z,4.20
2022-11-17T05:50:42.762Z,4.30
2022-11-17T05:55:47.891Z,4.13
2022-11-17T06:00:55.079Z,4.53
2022-11-17T06:06:02.756Z,3.80
2022-11-17T06:11:10.034Z,4.63
2022-11-17T06:16:23.571Z,3.97
2022-11-17T06:21:49.453Z,4.47
2022-11-17T06:26:57.015Z,4.40
2022-11-17T06:32:07.070Z,3.93
2022-11-17T06:37:25.218Z,4.00
2022-11-17T06:42:42.647Z,5.60
2022-11-17T06:47:50.042Z,4.73
2022-11-17T06:53:08.009Z,4.37
2022-11-17T06:58:17.653Z,5.13
2022-11-17T07:03:23.845Z,3.67
2022-11-17T07:08:32.142Z,6.53
2022-11-17T07:13:38.044Z,4.13
2022-11-17T07:18:45.895Z,3.47
2022-11-17T07:23:57.140Z,3.57
2022-11-17T07:29:02.247Z,3.20
2022-11-17T07:34:07.670Z,3.83
2022-11-17T07:39:21.213Z,3.77
2022-11-17T07:44:28.112Z,7.20
2022-11-17T07:49:32.959Z,4.50
2022-11-17T07:55:02.962Z,5.00
2022-11-17T08:00:21.655Z,5.40
2022-11-17T08:05:30.709Z,3.10
2022-11-17T08:10:38.376Z,3.50
2022-11-17T08:15:43.490Z,4.03
2022-11-17T08:20:49.257Z,3.90
2022-11-17T08:25:56.831Z,3.10
2022-11-17T08:31:04.030Z,3.87
2022-11-17T08:36:10.023Z,4.67
2022-11-17T08:41:17.577Z,4.20
2022-11-17T08:46:22.549Z,6.13
2022-11-17T08:51:29.392Z,9.97
2022-11-17T08:56:36.928Z,8.93
2022-11-17T09:01:42.486Z,5.83
2022-11-17T09:06:55.749Z,4.60
2022-11-17T09:12:13.847Z,3.40
2022-11-17T09:17:19.701Z,5.87
2022-11-17T09:22:24.988Z,3.77
2022-11-17T09:27:32.644Z,4.93
2022-11-17T09:32:41.058Z,3.33
2022-11-17T09:37:51.411Z,3.37
2022-11-17T09:42:59.033Z,3.53
2022-11-17T09:48:38.964Z,4.10
2022-11-17T09:53:43.674Z,5.60
2022-11-17T09:59:00.294Z,4.37
2022-11-17T10:04:11.938Z,5.20
2022-11-17T10:09:26.068Z,5.17
2022-11-17T10:14:44.060Z,4.50
2022-11-17T10:19:49.247Z,5.17
2022-11-17T10:24:58.742Z,5.30
2022-11-17T10:30:11.614Z,5.30
2022-11-17T10:35:19.335Z,5.90
2022-11-17T10:40:27.222Z,5.57
2022-11-17T10:45:37.591Z,6.17
2022-11-17T10:50:54.763Z,7.77
2022-11-17T10:56:07.561Z,8.07
2022-11-17T11:01:19.793Z,4.63
2022-11-17T11:06:32.833Z,4.13
2022-11-17T11:11:47.490Z,5.60
2022-11-17T11:16:55.958Z,4.03
2022-11-17T11:22:31.201Z,6.43
2022-11-17T11:28:07.449Z,6.70
2022-11-17T11:33:28.452Z,5.63
2022-11-17T11:38:46.902Z,7.07
2022-11-17T11:44:20.903Z,4.87
2022-11-17T11:49:35.450Z,5.67
2022-11-17T11:54:50.732Z,5.10
2022-11-17T12:00:04.641Z,4.63
2022-11-17T12:05:27.331Z,5.90
2022-11-17T12:10:39.646Z,5.63
2022-11-17T12:15:51.474Z,4.57
2022-11-17T12:21:09.354Z,4.40
2022-11-17T12:26:25.490Z,6.90
2022-11-17T12:31:46.479Z,5.10
2022-11-17T12:37:26.540Z,5.93
2022-11-17T12:42:33.714Z,5.13
2022-11-17T12:48:11.286Z,4.90
2022-11-17T12:53:36.349Z,4.83
2022-11-17T12:58:51.790Z,5.33
2022-11-17T13:04:03.551Z,5.23
2022-11-17T13:09:15.457Z,4.70
2022-11-17T13:14:20.442Z,6.83
2022-11-17T13:19:37.793Z,4.97
2022-11-17T13:24:47.499Z,5.70
2022-11-17T13:29:53.546Z,5.97
2022-11-17T13:35:00.998Z,5.60
2022-11-17T13:40:22.829Z,5.93
2022-11-17T13:45:30.775Z,6.53
2022-11-17T13:50:40.069Z,9.30
2022-11-17T13:55:51.774Z,5.83
2022-11-17T14:01:01.459Z,6.27
2022-11-17T14:06:08.675Z,6.17
2022-11-17T14:11:25.783Z,9.47
2022-11-17T14:16:35.777Z,7.70
2022-11-17T14:22:01.194Z,6.83
2022-11-17T14:28:02.558Z,11.23
2022-11-17T14:33:13.150Z,9.90
2022-11-17T14:38:22.112Z,8.30
2022-11-17T14:43:29.831Z,9.70
2022-11-17T14:48:37.656Z,6.50
2022-11-17T14:59:06.669Z,7.33
2022-11-17T15:09:44.195Z,6.40
2022-11-17T15:15:01.139Z,7.47
2022-11-17T15:20:06.908Z,8.20
2022-11-17T15:25:12.858Z,8.57
2022-11-17T15:30:20.949Z,9.23
2022-11-17T15:35:25.870Z,8.93
2022-11-17T15:40:31.024Z,7.70
2022-11-17T15:45:38.936Z,9.40
2022-11-17T15:50:44.298Z,7.83
2022-11-17T15:55:50.883Z,9.57
2022-11-17T16:01:12.285Z,11.57
2022-11-17T16:06:17.446Z,10.27
2022-11-17T16:11:25.085Z,8.43
2022-11-17T16:16:35.086Z,7.87
2022-11-17T16:21:40.768Z,11.33
2022-11-17T16:26:46.409Z,7.80
2022-11-17T16:31:54.085Z,10.23
2022-11-17T16:36:59.057Z,7.90
2022-11-17T16:42:04.059Z,10.80
2022-11-17T16:47:12.769Z,8.83
2022-11-17T16:52:20.322Z,7.33
2022-11-17T16:57:25.442Z,11.57
2022-11-17T17:02:44.707Z,9.23
2022-11-17T17:07:49.630Z,11.10
2022-11-17T17:12:56.215Z,8.83
2022-11-17T17:18:05.121Z,12.00
2022-11-17T17:23:09.980Z,13.40
2022-11-17T17:28:14.988Z,10.87
2022-11-17T17:33:22.641Z,12.40
2022-11-17T17:38:27.944Z,14.77
2022-11-17T17:43:33.160Z,12.43
2022-11-17T17:48:43.461Z,9.93
2022-11-17T17:53:50.249Z,12.53
2022-11-17T17:58:58.080Z,11.77
2022-11-17T18:04:15.280Z,10.53
2022-11-17T18:09:21.359Z,11.70
2022-11-17T18:14:26.871Z,13.73
2022-11-17T18:19:34.831Z,10.10
2022-11-17T18:24:39.912Z,14.63
2022-11-17T18:29:45.256Z,11.60
2022-11-17T18:34:54.494Z,11.27
2022-11-17T18:39:59.660Z,13.33
2022-11-17T18:45:05.161Z,16.37
2022-11-17T18:50:13.418Z,12.37
2022-11-17T18:55:22.184Z,14.77
2022-11-17T19:00:30.417Z,13.40
2022-11-17T19:05:39.726Z,15.27
2022-11-17T19:10:54.681Z,13.40
2022-11-17T19:16:06.213Z,16.80
2022-11-17T19:21:15.806Z,14.93
2022-11-17T19:26:22.564Z,15.17
2022-11-17T19:31:28.318Z,14.77
2022-11-17T19:36:37.585Z,16.57
2022-11-17T19:41:43.829Z,17.50
2022-11-17T19:46:49.676Z,14.43
2022-11-17T19:51:57.496Z,15.07
2022-11-17T19:57:03.016Z,17.50
2022-11-17T20:02:08.395Z,15.77
2022-11-17T20:07:16.944Z,15.60
2022-11-17T20:12:23.486Z,15.27
2022-11-17T20:17:28.979Z,15.53
2022-11-17T20:22:37.293Z,18.37
2022-11-17T20:27:43.200Z,18.67
2022-11-17T20:32:48.719Z,19.50
2022-11-17T20:37:56.714Z,20.37
2022-11-17T20:43:05.071Z,19.20
2022-11-17T20:48:10.461Z,23.33
2022-11-17T20:53:19.938Z,22.10
2022-11-17T20:58:28.978Z,21.27
2022-11-17T21:03:34.267Z,22.00
2022-11-17T21:08:43.739Z,25.33
2022-11-17T21:13:48.947Z,23.90
2022-11-17T21:18:53.823Z,24.33
2022-11-17T21:24:01.459Z,26.13
2022-11-17T21:29:07.256Z,22.77
2022-11-17T21:34:18.543Z,25.20
2022-11-17T21:39:26.123Z,26.37
2022-11-17T21:44:30.990Z,27.07
2022-11-17T21:49:36.109Z,24.23
2022-11-17T21:54:44.613Z,26.70
2022-11-17T21:59:50.463Z,25.63
2022-11-17T22:04:55.395Z,27.00
2022-11-17T22:10:03.090Z,28.07
2022-11-17T22:15:11.817Z,27.80
2022-11-17T22:20:17.092Z,24.93
2022-11-17T22:25:44.188Z,26.60
2022-11-17T22:30:49.618Z,27.57
2022-11-17T22:35:55.556Z,29.93
2022-11-17T22:41:08.237Z,28.03
2022-11-17T22:46:14.578Z,27.57
2022-11-17T22:51:42.845Z,27.77
2022-11-17T22:56:50.509Z,31.50
2022-11-17T23:01:55.647Z,32.23
2022-11-17T23:07:00.660Z,35.17
2022-11-17T23:12:09.054Z,35.53
2022-11-17T23:17:14.318Z,30.73
2022-11-17T23:22:19.525Z,31.67
2022-11-17T23:27:30.823Z,35.13
2022-11-17T23:32:35.938Z,31.90
2022-11-17T23:37:41.600Z,31.37
2022-11-17T23:42:49.103Z,32.10
2022-11-17T23:47:54.050Z,31.20
2022-11-17T23:52:58.949Z,31.73
2022-11-17T23:58:06.835Z,28.50
